Time;durP1;ratioP1;P1;durP2;ratioP2;P2;SDS_P1;SDS_P2;PMS_P1;PMS_P2;Temp;Humidity;BMP_temperature;BMP_pressure;BME280_temperature;BME280_humidity;BME280_pressure;Samples;Min_cycle;Max_cycle;Signal;HPM_P1;HPM_P2
2021/12/22 00:01:42;;;;;;;;;;;0.80;99.90;;;;;;5025747;28;19932;-81
2021/12/22 00:04:08;;;;;;;;;;;0.80;99.90;;;;;;5037571;28;19917;-81
2021/12/22 00:06:36;;;;;;;;;;;0.80;99.90;;;;;;5034386;28;19926;-82
2021/12/22 00:09:05;;;;;;;;;;;0.80;99.90;;;;;;5026928;28;19931;-82
2021/12/22 00:11:33;;;;;;;;;;;0.80;99.90;;;;;;5025725;28;19968;-82
2021/12/22 00:13:59;;;;;;;;;;;0.80;99.90;;;;;;5025245;28;19932;-82
2021/12/22 00:16:26;;;;;;;;;;;0.80;99.90;;;;;;5024096;28;19925;-82
2021/12/22 00:18:52;;;;;;;;;;;0.80;99.90;;;;;;5024023;28;20347;-82
2021/12/22 00:21:20;;;;;;;;;;;0.80;99.90;;;;;;5024188;28;19948;-83
2021/12/22 00:23:47;;;;;;;;;;;0.90;99.90;;;;;;5027191;28;19965;-82
2021/12/22 00:26:14;;;;;;;;;;;0.90;99.90;;;;;;5036458;28;19933;-82
2021/12/22 00:28:44;;;;;;;;;;;0.80;99.90;;;;;;5037360;28;21490;-83
2021/12/22 00:31:12;;;;;;;;;;;0.90;99.90;;;;;;5035447;28;19925;-82
2021/12/22 00:33:46;;;;;;;;;;;0.80;99.90;;;;;;5025577;28;19925;-82
2021/12/22 00:36:12;;;;;;;;;;;0.80;99.90;;;;;;5025024;28;20300;-83
2021/12/22 00:38:39;;;;;;;;;;;0.80;99.90;;;;;;5033063;28;19952;-83
2021/12/22 00:41:06;;;;;;;;;;;0.70;99.90;;;;;;5034670;28;19938;-83
2021/12/22 00:43:32;;;;;;;;;;;0.60;99.90;;;;;;5028612;28;19933;-82
2021/12/22 00:46:00;;;;;;;;;;;0.10;99.90;;;;;;5027227;28;19925;-82
2021/12/22 00:48:26;;;;;;;;;;;0.40;99.90;;;;;;5025556;28;19925;-82
2021/12/22 00:50:53;;;;;;;;;;;0.50;99.90;;;;;;5024761;28;20300;-83
2021/12/22 00:53:20;;;;;;;;;;;0.60;99.90;;;;;;5023640;28;19995;-83
2021/12/22 00:55:46;;;;;;;;;;;0.70;99.90;;;;;;5020707;28;19932;-82
2021/12/22 00:58:13;;;;;;;;;;;0.70;99.90;;;;;;5019517;28;19929;-83
2021/12/22 01:00:39;;;;;;;;;;;0.60;99.90;;;;;;5019268;28;19976;-82
2021/12/22 01:03:08;;;;;;;;;;;0.30;99.90;;;;;;5021046;28;19925;-83
2021/12/22 01:05:34;;;;;;;;;;;0.50;99.90;;;;;;5020624;28;19926;-83
2021/12/22 01:08:01;;;;;;;;;;;0.50;99.90;;;;;;5021919;28;19932;-83
2021/12/22 01:10:28;;;;;;;;;;;0.50;99.90;;;;;;5020928;28;19926;-84
2021/12/22 01:12:56;;;;;;;;;;;0.60;99.90;;;;;;5021865;28;19935;-82
2021/12/22 01:15:23;;;;;;;;;;;0.60;99.90;;;;;;5021465;28;19925;-82
2021/12/22 01:17:58;;;;;;;;;;;0.60;99.90;;;;;;5022044;28;19925;-82
2021/12/22 01:20:30;;;;;;;;;;;0.60;99.90;;;;;;5022156;28;19976;-83
2021/12/22 01:23:02;;;;;;;;;;;0.60;99.90;;;;;;5023868;28;19952;-82
2021/12/22 01:25:29;;;;;;;;;;;0.70;99.90;;;;;;5022091;28;19926;-83
2021/12/22 01:27:56;;;;;;;;;;;0.60;99.90;;;;;;5023476;28;19972;-82
2021/12/22 01:30:25;;;;;;;;;;;0.90;99.90;;;;;;5023410;28;19925;-83
2021/12/22 01:32:53;;;;;;;;;;;0.70;99.90;;;;;;5024267;28;20355;-82
2021/12/22 01:35:20;;;;;;;;;;;0.70;99.90;;;;;;5024782;28;19976;-82
2021/12/22 01:37:48;;;;;;;;;;;0.70;99.90;;;;;;5026886;28;19925;-82
2021/12/22 01:40:15;;;;;;;;;;;0.70;99.90;;;;;;5034294;28;19929;-82
2021/12/22 01:42:43;;;;;;;;;;;0.70;99.90;;;;;;5034949;28;19975;-82
2021/12/22 01:45:27;;;;;;;;;;;1.00;99.90;;;;;;5034994;28;19925;-82
2021/12/22 01:50:40;;;;;;;;;;;0.90;99.90;;;;;;5034040;28;19985;-82
2021/12/22 01:53:28;;;;;;;;;;;0.90;99.90;;;;;;5034506;28;19972;-82
2021/12/22 01:56:06;;;;;;;;;;;0.90;99.90;;;;;;5033411;28;21673;-82
2021/12/22 01:58:33;;;;;;;;;;;0.90;99.90;;;;;;5032068;28;19925;-82
2021/12/22 02:01:00;;;;;;;;;;;0.60;99.90;;;;;;5032290;28;19925;-82
2021/12/22 02:03:27;;;;;;;;;;;0.70;99.90;;;;;;5028917;28;19925;-82
2021/12/22 02:05:53;;;;;;;;;;;0.60;99.90;;;;;;5030256;28;19949;-81
2021/12/22 02:08:20;;;;;;;;;;;0.90;99.90;;;;;;5026109;28;19952;-82
2021/12/22 02:10:48;;;;;;;;;;;0.80;99.90;;;;;;5024960;28;19925;-82
2021/12/22 02:13:21;;;;;;;;;;;0.80;99.90;;;;;;5023048;28;19933;-82
2021/12/22 02:15:48;;;;;;;;;;;0.80;99.90;;;;;;5022494;28;19944;-82
2021/12/22 02:18:18;;;;;;;;;;;0.80;99.90;;;;;;5022532;28;19971;-82
2021/12/22 02:20:46;;;;;;;;;;;0.80;99.90;;;;;;5022034;28;19968;-82
2021/12/22 02:23:12;;;;;;;;;;;0.90;99.90;;;;;;5022139;28;19925;-82
2021/12/22 02:25:45;;;;;;;;;;;1.00;99.90;;;;;;5021471;28;19960;-82
2021/12/22 02:28:18;;;;;;;;;;;1.00;99.90;;;;;;5021931;28;19925;-82
2021/12/22 02:30:44;;;;;;;;;;;0.90;99.90;;;;;;5020606;28;19925;-83
2021/12/22 02:33:24;;;;;;;;;;;1.00;99.90;;;;;;5020712;28;19926;-83
2021/12/22 02:36:07;;;;;;;;;;;0.90;99.90;;;;;;5021597;28;19926;-82
2021/12/22 02:38:35;;;;;;;;;;;1.20;99.90;;;;;;5021255;28;19929;-82
2021/12/22 02:41:03;;;;;;;;;;;1.00;99.90;;;;;;5021540;28;19926;-82
2021/12/22 02:43:33;;;;;;;;;;;0.90;99.90;;;;;;5022848;28;19968;-82
2021/12/22 02:46:00;;;;;;;;;;;1.40;99.90;;;;;;5022052;28;19926;-82
2021/12/22 02:48:30;;;;;;;;;;;0.90;99.90;;;;;;5021683;28;20363;-82
2021/12/22 02:51:00;;;;;;;;;;;1.00;99.90;;;;;;5023709;28;19925;-82
2021/12/22 02:53:31;;;;;;;;;;;1.00;99.90;;;;;;5022267;28;20040;-82
2021/12/22 02:56:03;;;;;;;;;;;1.10;99.90;;;;;;5019039;28;20100;-83
2021/12/22 02:58:36;;;;;;;;;;;1.00;99.90;;;;;;5018321;28;19933;-82
2021/12/22 03:01:11;;;;;;;;;;;1.10;99.90;;;;;;5019412;28;19929;-83
2021/12/22 03:03:54;;;;;;;;;;;1.00;99.90;;;;;;5019235;28;19961;-82
2021/12/22 03:06:30;;;;;;;;;;;1.10;99.90;;;;;;5020602;28;20024;-82
2021/12/22 03:08:56;;;;;;;;;;;1.10;99.90;;;;;;5021520;28;19932;-83
2021/12/22 03:11:23;;;;;;;;;;;0.90;99.90;;;;;;5031149;28;19933;-83
2021/12/22 03:13:50;;;;;;;;;;;1.10;99.90;;;;;;5031926;28;19925;-81
2021/12/22 03:16:17;;;;;;;;;;;1.60;99.90;;;;;;5034198;28;19976;-81
2021/12/22 03:18:43;;;;;;;;;;;1.20;99.90;;;;;;5036281;28;19925;-80
2021/12/22 03:21:19;;;;;;;;;;;1.20;99.90;;;;;;5035359;28;19925;-80
2021/12/22 03:23:47;;;;;;;;;;;1.20;99.90;;;;;;5040690;28;19926;-80
2021/12/22 03:26:16;;;;;;;;;;;1.20;99.90;;;;;;5036350;28;19948;-82
2021/12/22 03:28:43;;;;;;;;;;;1.20;99.90;;;;;;5032535;28;19956;-82
2021/12/22 03:31:09;;;;;;;;;;;1.40;99.90;;;;;;5029051;28;19925;-82
2021/12/22 03:33:36;;;;;;;;;;;1.10;99.90;;;;;;5026485;28;20020;-82
2021/12/22 03:36:02;;;;;;;;;;;1.10;99.90;;;;;;5025753;28;19926;-82
2021/12/22 03:38:30;;;;;;;;;;;1.10;99.90;;;;;;5024715;28;19925;-82
2021/12/22 03:40:58;;;;;;;;;;;1.10;99.90;;;;;;5023980;28;20031;-82
2021/12/22 03:43:24;;;;;;;;;;;1.00;99.90;;;;;;5024363;28;20333;-82
2021/12/22 03:45:51;;;;;;;;;;;1.00;99.90;;;;;;5031952;28;19954;-81
2021/12/22 03:48:18;;;;;;;;;;;1.00;99.90;;;;;;5041024;28;19913;-82
2021/12/22 03:50:45;;;;;;;;;;;1.10;99.90;;;;;;5041105;28;19924;-81
2021/12/22 03:53:12;;;;;;;;;;;1.10;99.90;;;;;;5041063;28;19925;-82
2021/12/22 03:55:39;;;;;;;;;;;1.00;99.90;;;;;;5037327;28;19925;-81
2021/12/22 03:58:06;;;;;;;;;;;1.00;99.90;;;;;;5037009;28;19926;-81
2021/12/22 04:00:34;;;;;;;;;;;1.10;99.90;;;;;;5037685;28;19924;-81
2021/12/22 04:03:02;;;;;;;;;;;1.10;99.90;;;;;;5037223;28;19988;-81
2021/12/22 04:05:28;;;;;;;;;;;1.10;99.90;;;;;;5037891;28;19926;-81
2021/12/22 04:07:56;;;;;;;;;;;1.20;99.90;;;;;;5040482;28;19941;-84
2021/12/22 04:10:23;;;;;;;;;;;1.20;99.90;;;;;;5041418;28;19914;-83
2021/12/22 04:12:50;;;;;;;;;;;1.10;99.90;;;;;;5041424;28;19969;-83
2021/12/22 04:15:21;;;;;;;;;;;1.00;99.90;;;;;;5041384;28;19921;-83
2021/12/22 04:17:48;;;;;;;;;;;1.00;99.90;;;;;;5041184;28;19918;-83
2021/12/22 04:20:14;;;;;;;;;;;1.20;99.90;;;;;;5040952;28;19949;-84
2021/12/22 04:22:41;;;;;;;;;;;1.00;99.90;;;;;;5038171;28;19929;-82
2021/12/22 04:25:09;;;;;;;;;;;1.00;99.90;;;;;;5031575;28;20459;-81
2021/12/22 04:27:35;;;;;;;;;;;1.00;99.90;;;;;;5028446;28;19925;-82
2021/12/22 04:30:03;;;;;;;;;;;0.90;99.90;;;;;;5023281;28;19975;-83
2021/12/22 04:32:31;;;;;;;;;;;0.90;99.90;;;;;;5020669;28;19983;-83
2021/12/22 04:34:57;;;;;;;;;;;0.90;99.90;;;;;;5021257;28;19933;-82
2021/12/22 04:37:24;;;;;;;;;;;1.80;99.90;;;;;;5021657;28;19926;-82
2021/12/22 04:39:50;;;;;;;;;;;0.90;99.90;;;;;;5023699;28;20358;-82
2021/12/22 04:42:17;;;;;;;;;;;0.90;99.90;;;;;;5022723;28;20292;-83
2021/12/22 04:44:44;;;;;;;;;;;0.60;99.90;;;;;;5022431;28;20020;-83
2021/12/22 04:47:10;;;;;;;;;;;0.90;99.90;;;;;;5023272;28;19948;-83
2021/12/22 04:49:40;;;;;;;;;;;0.80;99.90;;;;;;5023053;28;20407;-83
2021/12/22 04:52:08;;;;;;;;;;;0.90;99.90;;;;;;5034167;28;19926;-82
2021/12/22 04:54:46;;;;;;;;;;;0.80;99.90;;;;;;5039401;28;19940;-82
2021/12/22 04:57:13;;;;;;;;;;;1.00;99.90;;;;;;5039676;28;19952;-82
2021/12/22 04:59:39;;;;;;;;;;;0.80;99.90;;;;;;5029210;28;19925;-82
2021/12/22 05:02:07;;;;;;;;;;;0.80;99.90;;;;;;5024900;28;19937;-82
2021/12/22 05:04:33;;;;;;;;;;;0.90;99.90;;;;;;5024854;28;20295;-82
2021/12/22 05:07:01;;;;;;;;;;;0.90;99.90;;;;;;5024627;28;19933;-82
2021/12/22 05:09:27;;;;;;;;;;;0.80;99.90;;;;;;5023394;28;19929;-83
2021/12/22 05:11:54;;;;;;;;;;;0.80;99.90;;;;;;5030592;28;19913;-82
2021/12/22 05:14:20;;;;;;;;;;;0.80;99.90;;;;;;5030375;28;19925;-82
2021/12/22 05:16:51;;;;;;;;;;;0.80;99.90;;;;;;5022768;28;19937;-82
2021/12/22 05:19:18;;;;;;;;;;;0.70;99.90;;;;;;5024130;28;20011;-82
2021/12/22 05:21:45;;;;;;;;;;;0.80;99.90;;;;;;5036843;28;19925;-81
2021/12/22 05:24:13;;;;;;;;;;;0.90;99.90;;;;;;5038391;28;19913;-82
2021/12/22 05:26:40;;;;;;;;;;;0.70;99.90;;;;;;5038058;28;19926;-82
2021/12/22 05:29:06;;;;;;;;;;;0.70;99.90;;;;;;5023034;28;19953;-83
2021/12/22 05:31:33;;;;;;;;;;;0.80;99.90;;;;;;5021983;28;19987;-82
2021/12/22 05:34:00;;;;;;;;;;;0.80;99.90;;;;;;5021720;28;20003;-82
2021/12/22 05:36:27;;;;;;;;;;;0.70;99.90;;;;;;5025101;28;19933;-81
2021/12/22 05:38:53;;;;;;;;;;;0.80;99.90;;;;;;5022432;28;19979;-82
2021/12/22 05:41:21;;;;;;;;;;;0.80;99.90;;;;;;5020923;28;20450;-82
2021/12/22 05:43:48;;;;;;;;;;;0.80;99.90;;;;;;5021273;28;19926;-82
2021/12/22 05:46:15;;;;;;;;;;;0.90;99.90;;;;;;5023331;28;19972;-82
2021/12/22 05:48:41;;;;;;;;;;;0.90;99.90;;;;;;5036820;28;19925;-82
2021/12/22 05:51:08;;;;;;;;;;;0.80;99.90;;;;;;5031594;28;19937;-81
2021/12/22 05:53:34;;;;;;;;;;;1.20;99.90;;;;;;5025178;28;19926;-82
2021/12/22 05:56:01;;;;;;;;;;;0.80;99.90;;;;;;5023448;28;19933;-82
2021/12/22 05:58:29;;;;;;;;;;;0.60;99.90;;;;;;5022709;28;20001;-82
2021/12/22 06:00:55;;;;;;;;;;;0.60;99.90;;;;;;5021365;28;19949;-82
2021/12/22 06:03:22;;;;;;;;;;;0.50;99.90;;;;;;5020026;28;19925;-82
2021/12/22 06:05:48;;;;;;;;;;;0.50;99.90;;;;;;5027868;28;19926;-81
2021/12/22 06:08:15;;;;;;;;;;;0.50;99.90;;;;;;5026830;28;19952;-82
2021/12/22 07:19:57;;;;;;;;;;;;;;;;;;;;;
2021/12/22 07:35:43;;;;;;;;;;;0.10;99.90;;;;;;5080905;27;1922308;-82
2021/12/22 07:38:17;;;;;;;;;;;0.10;99.90;;;;;;5137538;28;19928;-82
2021/12/22 07:40:43;;;;;;;;;;;0.10;99.90;;;;;;5124725;28;19934;-82
2021/12/22 07:43:16;;;;;;;;;;;0.00;99.90;;;;;;5120269;28;19946;-81
2021/12/22 07:45:43;;;;;;;;;;;0.10;99.90;;;;;;5125790;28;19930;-79
2021/12/22 07:57:21;;;;;;;;;;;0.20;99.90;;;;;;5013889;28;19949;-82
2021/12/22 07:59:51;;;;;;;;;;;0.20;99.90;;;;;;5085787;28;19935;-81
2021/12/22 08:02:23;;;;;;;;;;;0.20;99.90;;;;;;5119164;28;19946;-86
2021/12/22 08:04:58;;;;;;;;;;;0.20;99.90;;;;;;5119262;28;19924;-85
2021/12/22 08:07:27;;;;;;;;;;;0.20;99.90;;;;;;5119262;28;19962;-83
2021/12/22 08:10:01;;;;;;;;;;;0.30;99.90;;;;;;5117512;28;19930;-83
2021/12/22 08:12:33;;;;;;;;;;;0.30;99.90;;;;;;5116639;28;19990;-80
2021/12/22 10:35:56;;;;;;;;;;;2.60;99.90;;;;;;4802766;29;20015;-83
2021/12/22 10:51:29;;;;;;;;;;;1.60;99.90;;;;;;4907201;29;19940;-85
2021/12/22 10:56:58;;;;;;;;;;;1.60;99.90;;;;;;4929765;29;20013;-86
2021/12/22 10:59:26;;;;;;;;;;;1.60;99.90;;;;;;5003048;28;20472;-86
2021/12/22 11:02:06;;;;;;;;;;;1.40;99.90;;;;;;5053948;28;19946;-85
2021/12/22 11:04:34;;;;;;;;;;;1.60;99.90;;;;;;5080016;28;19924;-84
2021/12/22 11:07:07;;;;;;;;;;;1.40;99.90;;;;;;5082535;28;19936;-85
2021/12/22 11:09:36;;;;;;;;;;;2.00;99.90;;;;;;5093760;28;19950;-84
2021/12/22 11:12:08;;;;;;;;;;;1.90;99.90;;;;;;5080477;28;19928;-84
2021/12/22 11:14:39;;;;;;;;;;;1.80;99.90;;;;;;5080989;28;19928;-85
2021/12/22 11:17:07;;;;;;;;;;;0.60;99.90;;;;;;5090983;28;19928;-86
2021/12/22 11:19:38;;;;;;;;;;;1.30;99.90;;;;;;5089294;28;19931;-86
2021/12/22 11:22:09;;;;;;;;;;;1.20;99.90;;;;;;5087240;28;19944;-87
2021/12/22 11:24:38;;;;;;;;;;;1.60;99.90;;;;;;5085803;28;19947;-85
2021/12/22 11:27:08;;;;;;;;;;;1.70;99.90;;;;;;5084227;28;19923;-84
2021/12/22 11:29:36;;;;;;;;;;;1.60;99.90;;;;;;5096714;28;19940;-83
2021/12/22 11:32:04;;;;;;;;;;;2.00;99.90;;;;;;5096428;28;19988;-83
2021/12/22 11:34:34;;;;;;;;;;;1.40;99.90;;;;;;5086782;28;19929;-84
2021/12/22 11:37:02;;;;;;;;;;;1.80;99.90;;;;;;5082365;28;19988;-85
2021/12/22 11:39:30;;;;;;;;;;;1.90;99.90;;;;;;5081968;28;19932;-86
2021/12/22 11:42:02;;;;;;;;;;;1.70;99.90;;;;;;5079854;28;20011;-86
2021/12/22 11:44:33;;;;;;;;;;;2.30;99.90;;;;;;5079822;28;19931;-85
2021/12/22 11:49:54;;;;;;;;;;;1.60;99.90;;;;;;5077484;28;20007;-86
2021/12/22 11:52:36;;;;;;;;;;;1.90;99.90;;;;;;5079328;28;19924;-85
2021/12/22 11:55:06;;;;;;;;;;;1.90;99.90;;;;;;5081286;28;19992;-86
2021/12/22 11:57:33;;;;;;;;;;;2.00;99.90;;;;;;5087302;28;19925;-85
2021/12/22 12:00:19;;;;;;;;;;;1.30;99.90;;;;;;5076522;28;19925;-77
2021/12/22 12:02:46;;;;;;;;;;;1.90;99.90;;;;;;5074464;28;20019;-77
2021/12/22 12:05:13;;;;;;;;;;;2.00;99.90;;;;;;5073605;28;19960;-76
2021/12/22 12:07:42;;;;;;;;;;;2.10;99.90;;;;;;5077960;28;19956;-75
2021/12/22 12:10:27;;;;;;;;;;;2.10;99.90;;;;;;5083830;28;19928;-76
2021/12/22 12:12:56;;;;;;;;;;;2.10;99.90;;;;;;5078453;28;20401;-77
2021/12/22 12:15:38;;;;;;;;;;;2.10;99.90;;;;;;5081191;28;19928;-77
2021/12/22 12:23:35;;;;;;;;;;;2.00;99.90;;;;;;5077966;28;19998;-77
2021/12/22 12:26:02;;;;;;;;;;;1.90;99.90;;;;;;5084752;28;19930;-88
2021/12/22 12:28:30;;;;;;;;;;;1.80;99.90;;;;;;5087830;28;20253;-87
2021/12/22 12:30:58;;;;;;;;;;;2.00;99.90;;;;;;5093366;28;19924;-88
2021/12/22 12:33:30;;;;;;;;;;;2.10;99.90;;;;;;5100998;28;19970;-85
2021/12/22 12:36:05;;;;;;;;;;;1.80;99.90;;;;;;5101562;28;19938;-85
2021/12/22 12:38:46;;;;;;;;;;;2.00;99.90;;;;;;5101222;28;19913;-85
2021/12/22 12:41:15;;;;;;;;;;;2.00;99.90;;;;;;5101344;28;19909;-86
2021/12/22 12:44:06;;;;;;;;;;;2.10;99.90;;;;;;5101309;28;19912;-87
2021/12/22 12:46:39;;;;;;;;;;;2.10;99.90;;;;;;5080694;28;19909;-85
2021/12/22 12:49:26;;;;;;;;;;;2.00;99.90;;;;;;5100448;28;19975;-85
2021/12/22 12:51:59;;;;;;;;;;;2.10;99.90;;;;;;5099631;28;19920;-86
2021/12/22 12:54:28;;;;;;;;;;;2.20;99.90;;;;;;5097495;28;19988;-86
2021/12/22 12:56:57;;;;;;;;;;;1.60;99.90;;;;;;5094880;28;19924;-85
2021/12/22 12:59:44;;;;;;;;;;;1.40;99.90;;;;;;5091801;28;19956;-86
2021/12/22 13:02:11;;;;;;;;;;;2.60;99.90;;;;;;5089627;28;19924;-86
2021/12/22 13:04:39;;;;;;;;;;;1.50;99.90;;;;;;5092876;28;19928;-87
2021/12/22 13:07:08;;;;;;;;;;;1.90;99.90;;;;;;5108443;22;19928;-79
2021/12/22 13:09:35;;;;;;;;;;;0.90;99.90;;;;;;5090549;28;19931;-81
2021/12/22 13:12:11;;;;;;;;;;;2.20;99.90;;;;;;5093244;28;19924;-80
2021/12/22 13:17:23;;;;;;;;;;;2.00;99.90;;;;;;5082236;28;19974;-81
2021/12/22 13:19:52;;;;;;;;;;;1.90;99.90;;;;;;5071864;28;19924;-79
2021/12/22 13:22:22;;;;;;;;;;;1.90;99.90;;;;;;5071337;28;19947;-80
2021/12/22 13:24:49;;;;;;;;;;;1.80;99.90;;;;;;5071052;28;19925;-81
2021/12/22 13:27:25;;;;;;;;;;;1.60;99.90;;;;;;5070417;28;19925;-81
2021/12/22 13:30:03;;;;;;;;;;;1.60;99.90;;;;;;5071996;28;20393;-80
2021/12/22 13:32:30;;;;;;;;;;;1.90;99.90;;;;;;5071980;28;19931;-81
2021/12/22 13:34:59;;;;;;;;;;;1.10;99.90;;;;;;5070319;28;19925;-81
2021/12/22 13:37:27;;;;;;;;;;;1.90;99.90;;;;;;5070480;28;19924;-82
2021/12/22 13:39:53;;;;;;;;;;;2.30;99.90;;;;;;5070770;28;19925;-81
2021/12/22 13:42:20;;;;;;;;;;;1.90;99.90;;;;;;5071180;28;19924;-81
2021/12/22 13:44:46;;;;;;;;;;;1.90;99.90;;;;;;5070894;28;19924;-81
2021/12/22 13:47:13;;;;;;;;;;;1.80;99.90;;;;;;5074468;28;19935;-81
2021/12/22 13:49:40;;;;;;;;;;;1.80;99.90;;;;;;5074485;28;19924;-80
2021/12/22 13:52:07;;;;;;;;;;;1.80;99.90;;;;;;5074499;28;19930;-81
2021/12/22 13:54:34;;;;;;;;;;;1.30;99.90;;;;;;5072023;28;19932;-80
2021/12/22 13:57:02;;;;;;;;;;;1.70;99.90;;;;;;5071721;28;19925;-79
2021/12/22 13:59:29;;;;;;;;;;;1.90;99.90;;;;;;5069667;28;19932;-79
2021/12/22 14:01:57;;;;;;;;;;;2.10;99.90;;;;;;5070758;28;19932;-79
2021/12/22 14:06:44;;;;;;;;;;;2.60;99.90;;;;;;5099539;27;1856026;-78
2021/12/22 14:09:11;;;;;;;;;;;2.00;99.90;;;;;;5145953;28;19945;-79
2021/12/22 14:11:39;;;;;;;;;;;1.90;99.90;;;;;;5146011;28;19931;-79
2021/12/22 14:14:23;;;;;;;;;;;1.90;99.90;;;;;;5147726;28;19924;-80
2021/12/22 14:16:50;;;;;;;;;;;1.90;99.90;;;;;;5145570;27;19923;-79
2021/12/22 14:19:17;;;;;;;;;;;1.90;99.90;;;;;;5146529;28;19923;-79
2021/12/22 14:21:47;;;;;;;;;;;1.80;99.90;;;;;;5146856;28;19923;-79
2021/12/22 14:24:19;;;;;;;;;;;1.80;99.90;;;;;;5146935;28;19924;-79
2021/12/22 14:26:47;;;;;;;;;;;1.80;99.90;;;;;;5144650;27;19985;-80
2021/12/22 14:29:14;;;;;;;;;;;1.70;99.90;;;;;;5140239;28;19943;-80
2021/12/22 14:31:53;;;;;;;;;;;1.70;99.90;;;;;;5139941;28;19923;-80
2021/12/22 14:34:20;;;;;;;;;;;1.70;99.90;;;;;;5142123;28;20416;-79
2021/12/22 14:36:49;;;;;;;;;;;1.70;99.90;;;;;;5146269;27;19923;-79
2021/12/22 14:39:16;;;;;;;;;;;1.70;99.90;;;;;;5149934;28;19950;-79
2021/12/22 14:41:43;;;;;;;;;;;1.70;99.90;;;;;;5150353;28;19924;-79
2021/12/22 14:44:27;;;;;;;;;;;1.70;99.90;;;;;;5147951;28;19942;-79
2021/12/22 14:46:54;;;;;;;;;;;1.60;99.90;;;;;;5147004;27;19924;-80
2021/12/22 14:49:21;;;;;;;;;;;1.60;99.90;;;;;;5147071;28;19951;-80
2021/12/22 14:51:50;;;;;;;;;;;1.50;99.90;;;;;;5145653;28;19924;-79
2021/12/22 14:54:19;;;;;;;;;;;1.50;99.90;;;;;;5150015;28;19947;-79
2021/12/22 14:56:47;;;;;;;;;;;1.50;99.90;;;;;;5150196;27;19923;-79
2021/12/22 14:59:14;;;;;;;;;;;1.50;99.90;;;;;;5149687;28;19924;-79
2021/12/22 15:01:41;;;;;;;;;;;1.40;99.90;;;;;;5149580;28;19935;-79
2021/12/22 15:04:07;;;;;;;;;;;1.40;99.90;;;;;;5150221;28;19931;-78
2021/12/22 15:06:34;;;;;;;;;;;1.30;99.90;;;;;;5150232;27;19973;-79
2021/12/22 15:09:03;;;;;;;;;;;1.30;99.90;;;;;;5150855;28;19923;-79
2021/12/22 15:11:29;;;;;;;;;;;1.20;99.90;;;;;;5146485;28;19967;-76
2021/12/22 15:13:56;;;;;;;;;;;1.30;99.90;;;;;;5130585;28;20007;-77
2021/12/22 15:16:24;;;;;;;;;;;1.30;99.90;;;;;;5126193;28;20026;-77
2021/12/22 15:18:50;;;;;;;;;;;1.20;99.90;;;;;;5116766;28;20320;-76
2021/12/22 15:21:17;;;;;;;;;;;1.20;99.90;;;;;;5116823;28;19971;-76
2021/12/22 15:23:44;;;;;;;;;;;1.20;99.90;;;;;;5116738;28;19932;-77
2021/12/22 15:26:12;;;;;;;;;;;1.20;99.90;;;;;;5116476;28;19967;-76
2021/12/22 15:28:38;;;;;;;;;;;1.20;99.90;;;;;;5116542;28;20366;-76
2021/12/22 15:31:05;;;;;;;;;;;1.20;99.90;;;;;;5118386;28;19951;-77
2021/12/22 15:33:33;;;;;;;;;;;1.10;99.90;;;;;;5117094;28;20022;-76
2021/12/22 15:35:59;;;;;;;;;;;1.10;99.90;;;;;;5117077;28;20326;-77
2021/12/22 15:38:26;;;;;;;;;;;1.10;99.90;;;;;;5118098;28;19971;-75
2021/12/22 15:40:53;;;;;;;;;;;1.10;99.90;;;;;;5120841;28;20000;-77
2021/12/22 15:43:21;;;;;;;;;;;1.10;99.90;;;;;;5135299;28;19923;-77
2021/12/22 15:45:47;;;;;;;;;;;1.00;99.90;;;;;;5134394;28;19931;-78
2021/12/22 15:48:15;;;;;;;;;;;1.00;99.90;;;;;;5133901;28;19923;-77
2021/12/22 15:50:42;;;;;;;;;;;1.00;99.90;;;;;;5134175;28;19924;-79
2021/12/22 15:53:08;;;;;;;;;;;1.00;99.90;;;;;;5134179;28;19935;-79
2021/12/22 15:55:35;;;;;;;;;;;1.00;99.90;;;;;;5134113;28;19924;-80
2021/12/22 15:58:02;;;;;;;;;;;0.90;99.90;;;;;;5134718;28;19935;-80
2021/12/22 16:00:30;;;;;;;;;;;0.90;99.90;;;;;;5134824;28;19924;-80
2021/12/22 16:02:58;;;;;;;;;;;0.90;99.90;;;;;;5134331;28;20366;-79
2021/12/22 16:05:25;;;;;;;;;;;0.90;99.90;;;;;;5135069;28;19931;-78
2021/12/22 16:07:52;;;;;;;;;;;0.90;99.90;;;;;;5135139;28;19924;-78
2021/12/22 16:10:20;;;;;;;;;;;0.90;99.90;;;;;;5134363;28;20369;-79
2021/12/22 16:12:46;;;;;;;;;;;0.80;99.90;;;;;;5135957;28;19931;-79
2021/12/22 16:15:14;;;;;;;;;;;0.80;99.90;;;;;;5134236;28;19931;-79
2021/12/22 16:17:44;;;;;;;;;;;0.70;99.90;;;;;;5132780;28;19923;-80
2021/12/22 16:20:11;;;;;;;;;;;0.80;99.90;;;;;;5130832;28;20003;-79
2021/12/22 16:22:37;;;;;;;;;;;0.70;99.90;;;;;;5134284;28;20328;-81
2021/12/22 16:25:04;;;;;;;;;;;0.90;99.90;;;;;;5133185;28;19923;-79
2021/12/22 16:27:31;;;;;;;;;;;0.80;99.90;;;;;;5131998;28;19938;-79
2021/12/22 16:29:59;;;;;;;;;;;0.90;99.90;;;;;;5132858;28;19946;-80
2021/12/22 16:32:25;;;;;;;;;;;0.90;99.90;;;;;;5133739;28;19931;-80
2021/12/22 16:34:53;;;;;;;;;;;0.90;99.90;;;;;;5133597;28;19923;-79
2021/12/22 16:37:20;;;;;;;;;;;0.80;99.90;;;;;;5133741;28;19923;-79
2021/12/22 16:39:46;;;;;;;;;;;0.80;99.90;;;;;;5133706;28;19935;-81
2021/12/22 16:42:13;;;;;;;;;;;0.80;99.90;;;;;;5131846;28;19924;-82
2021/12/22 16:44:39;;;;;;;;;;;0.80;99.90;;;;;;5126880;28;20403;-80
2021/12/22 16:47:06;;;;;;;;;;;0.70;99.90;;;;;;5128399;28;19939;-81
2021/12/22 16:49:33;;;;;;;;;;;0.80;99.90;;;;;;5135010;28;20341;-80
2021/12/22 16:52:00;;;;;;;;;;;0.80;99.90;;;;;;5134760;28;19924;-80
2021/12/22 16:54:27;;;;;;;;;;;0.80;99.90;;;;;;5133112;28;19923;-81
2021/12/22 16:56:53;;;;;;;;;;;0.70;99.90;;;;;;5133547;28;19911;-80
2021/12/22 16:59:20;;;;;;;;;;;0.60;99.90;;;;;;5133281;28;19931;-80
2021/12/22 17:01:47;;;;;;;;;;;0.60;99.90;;;;;;5133270;28;19983;-78
2021/12/22 17:04:14;;;;;;;;;;;1.80;99.90;;;;;;5132251;28;19972;-80
2021/12/22 17:06:44;;;;;;;;;;;0.60;99.90;;;;;;5130119;28;19923;-79
2021/12/22 17:09:12;;;;;;;;;;;0.60;99.90;;;;;;5129511;28;19924;-79
2021/12/22 17:11:40;;;;;;;;;;;0.60;99.90;;;;;;5129000;28;19935;-79
2021/12/22 17:14:07;;;;;;;;;;;0.50;99.90;;;;;;5129180;28;19924;-83
2021/12/22 17:16:33;;;;;;;;;;;0.60;99.90;;;;;;5132988;28;19945;-81
2021/12/22 17:19:00;;;;;;;;;;;0.60;99.90;;;;;;5132649;28;19923;-79
2021/12/22 17:21:26;;;;;;;;;;;0.70;99.90;;;;;;5129446;28;19950;-80
2021/12/22 17:23:53;;;;;;;;;;;0.60;99.90;;;;;;5130049;28;20328;-80
2021/12/22 17:26:21;;;;;;;;;;;0.60;99.90;;;;;;5129699;28;19924;-79
2021/12/22 17:28:47;;;;;;;;;;;0.50;99.90;;;;;;5128781;28;19924;-81
2021/12/22 17:31:15;;;;;;;;;;;0.50;99.90;;;;;;5129410;28;19924;-80
2021/12/22 17:33:42;;;;;;;;;;;0.50;99.90;;;;;;5129270;28;19924;-80
2021/12/22 17:36:09;;;;;;;;;;;0.50;99.90;;;;;;5129436;28;19923;-79
2021/12/22 17:38:36;;;;;;;;;;;0.50;99.90;;;;;;5129486;28;19928;-81
2021/12/22 17:41:02;;;;;;;;;;;0.40;99.90;;;;;;5129814;28;19923;-81
2021/12/22 17:43:30;;;;;;;;;;;0.50;99.90;;;;;;5128965;28;20259;-81
2021/12/22 17:45:57;;;;;;;;;;;0.40;99.90;;;;;;5128994;28;19924;-81
2021/12/22 17:48:24;;;;;;;;;;;0.40;99.90;;;;;;5129630;28;19923;-81
2021/12/22 17:50:51;;;;;;;;;;;0.40;99.90;;;;;;5132111;28;19923;-81
2021/12/22 17:53:18;;;;;;;;;;;0.40;99.90;;;;;;5131306;28;19924;-81
2021/12/22 17:55:45;;;;;;;;;;;0.40;99.90;;;;;;5128293;28;19946;-79
2021/12/22 17:58:12;;;;;;;;;;;0.40;99.90;;;;;;5127054;28;19924;-79
2021/12/22 18:00:42;;;;;;;;;;;0.40;99.90;;;;;;5130078;28;19951;-80
2021/12/22 18:03:08;;;;;;;;;;;0.30;99.90;;;;;;5130273;28;19973;-81
2021/12/22 18:05:39;;;;;;;;;;;0.30;99.90;;;;;;5129017;28;19923;-80
2021/12/22 18:08:06;;;;;;;;;;;0.10;99.90;;;;;;5128624;28;19974;-80
2021/12/22 18:10:33;;;;;;;;;;;0.00;99.90;;;;;;5128978;28;19923;-81
2021/12/22 18:13:00;;;;;;;;;;;0.20;99.90;;;;;;5131438;28;19931;-81
2021/12/22 18:15:27;;;;;;;;;;;0.20;99.90;;;;;;5129198;28;19928;-81
2021/12/22 18:17:55;;;;;;;;;;;0.20;99.90;;;;;;5127340;28;19946;-82
2021/12/22 18:20:24;;;;;;;;;;;0.20;99.90;;;;;;5128623;28;19923;-81
2021/12/22 18:22:51;;;;;;;;;;;0.10;99.90;;;;;;5127390;28;20404;-79
2021/12/22 18:25:18;;;;;;;;;;;0.10;99.90;;;;;;5127986;28;19923;-80
2021/12/22 18:27:44;;;;;;;;;;;0.10;99.90;;;;;;5128335;28;19924;-81
2021/12/22 18:30:12;;;;;;;;;;;0.10;99.90;;;;;;5128090;28;19934;-80
2021/12/22 18:32:39;;;;;;;;;;;0.10;99.90;;;;;;5128229;28;19973;-80
2021/12/22 18:35:11;;;;;;;;;;;0.10;99.90;;;;;;5128240;28;19924;-81
2021/12/22 18:37:56;;;;;;;;;;;0.10;99.90;;;;;;5127975;28;19927;-83
2021/12/22 18:40:30;;;;;;;;;;;0.10;99.90;;;;;;5129640;28;19924;-81
2021/12/22 18:42:56;;;;;;;;;;;0.10;99.90;;;;;;5131033;28;19923;-81
2021/12/22 18:45:23;;;;;;;;;;;0.00;99.90;;;;;;5129097;28;19924;-79
2021/12/22 18:47:49;;;;;;;;;;;0.10;99.90;;;;;;5129950;28;19931;-79
2021/12/22 18:50:17;;;;;;;;;;;0.00;99.90;;;;;;5130123;28;19924;-80
2021/12/22 18:52:43;;;;;;;;;;;0.00;99.90;;;;;;5129547;28;19924;-79
2021/12/22 18:55:10;;;;;;;;;;;0.40;99.90;;;;;;5132380;28;19976;-79
2021/12/22 18:57:36;;;;;;;;;;;0.00;99.90;;;;;;5131791;28;20343;-81
2021/12/22 19:00:04;;;;;;;;;;;-0.10;99.90;;;;;;5128699;28;19934;-81
2021/12/22 19:02:30;;;;;;;;;;;-0.20;99.90;;;;;;5130250;28;19928;-81
2021/12/22 19:04:57;;;;;;;;;;;-0.20;99.90;;;;;;5131919;28;19949;-79